createdAt,value
2019-04-27T00:03:20.566Z,8.80
2019-04-27T00:09:29.934Z,8.70
2019-04-27T00:12:11.341Z,8.60
2019-04-27T00:17:59.197Z,8.60
2019-04-27T00:20:55.163Z,8.60
2019-04-27T00:23:34.908Z,8.50
2019-04-27T00:29:36.131Z,8.50
2019-04-27T00:32:17.072Z,8.50
2019-04-27T00:35:14.879Z,8.40
2019-04-27T00:41:31.758Z,8.40
2019-04-27T00:44:33.920Z,8.30
2019-04-27T00:47:16.190Z,8.30
2019-04-27T00:49:49.750Z,8.30
2019-04-27T00:52:24.104Z,8.30
2019-04-27T00:54:57.966Z,8.30
2019-04-27T00:57:59.003Z,8.20
2019-04-27T01:01:05.903Z,8.30
2019-04-27T01:03:52.989Z,8.20
2019-04-27T01:06:23.417Z,8.20
2019-04-27T01:08:57.574Z,8.20
2019-04-27T01:11:57.603Z,8.20
2019-04-27T01:14:34.273Z,8.10
2019-04-27T01:17:08.890Z,8.20
2019-04-27T01:20:09.214Z,8.20
2019-04-27T01:26:36.285Z,8.20
2019-04-27T01:29:24.865Z,8.10
2019-04-27T01:31:58.868Z,8.00
2019-04-27T01:34:41.977Z,8.00
2019-04-27T01:37:20.896Z,8.00
2019-04-27T01:39:59.633Z,7.90
2019-04-27T01:42:35.851Z,7.90
2019-04-27T01:45:08.545Z,7.80
2019-04-27T01:47:45.882Z,7.80
2019-04-27T01:50:29.047Z,7.70
2019-04-27T01:53:14.326Z,7.70
2019-04-27T01:55:51.945Z,7.70
2019-04-27T01:58:29.326Z,7.70
2019-04-27T02:01:18.722Z,7.70
2019-04-27T02:04:12.625Z,7.70
2019-04-27T02:06:48.719Z,7.70
2019-04-27T02:09:25.061Z,7.60
2019-04-27T02:15:10.667Z,7.50
2019-04-27T02:17:59.643Z,7.60
2019-04-27T02:20:38.813Z,7.60
2019-04-27T02:23:19.264Z,7.50
2019-04-27T02:25:53.083Z,7.50
2019-04-27T02:28:40.558Z,7.40
2019-04-27T02:31:40.942Z,7.40
2019-04-27T02:34:14.092Z,7.40
2019-04-27T02:36:43.344Z,7.40
2019-04-27T02:39:15.179Z,7.30
2019-04-27T02:42:06.847Z,7.30
2019-04-27T02:45:00.796Z,7.30
2019-04-27T02:47:29.976Z,7.30
2019-04-27T02:50:13.633Z,7.20
2019-04-27T02:52:51.324Z,7.20
2019-04-27T02:55:29.277Z,7.20
2019-04-27T02:58:00.007Z,7.30
2019-04-27T03:00:31.917Z,7.30
2019-04-27T03:03:05.371Z,7.30
2019-04-27T03:05:50.813Z,7.20
2019-04-27T03:08:16.133Z,7.30
2019-04-27T03:10:50.294Z,7.30
2019-04-27T03:13:43.757Z,7.30
2019-04-27T03:16:13.229Z,7.30
2019-04-27T03:19:22.474Z,7.30
2019-04-27T03:22:15.150Z,7.20
2019-04-27T03:25:03.426Z,7.20
2019-04-27T03:27:45.683Z,7.20
2019-04-27T03:30:23.442Z,7.20
2019-04-27T03:33:04.034Z,7.20
2019-04-27T03:35:42.705Z,7.10
2019-04-27T03:38:35.385Z,7.10
2019-04-27T03:41:19.247Z,7.20
2019-04-27T03:43:50.685Z,7.20
2019-04-27T03:46:26.636Z,7.20
2019-04-27T03:49:27.486Z,7.30
2019-04-27T03:52:36.835Z,7.30
2019-04-27T03:54:43.215Z,7.40
2019-04-27T03:57:39.976Z,7.40
2019-04-27T04:00:16.291Z,7.40
2019-04-27T04:02:53.567Z,7.30
2019-04-27T04:05:42.089Z,7.40
2019-04-27T04:08:19.268Z,7.40
2019-04-27T04:11:10.185Z,7.40
2019-04-27T04:13:44.049Z,7.40
2019-04-27T04:16:50.948Z,7.40
2019-04-27T04:19:47.804Z,7.40
2019-04-27T04:22:10.545Z,7.40
2019-04-27T04:24:41.525Z,7.40
2019-04-27T04:27:23.143Z,7.30
2019-04-27T04:29:52.892Z,7.20
2019-04-27T04:32:40.781Z,7.20
2019-04-27T04:35:39.490Z,7.30
2019-04-27T04:38:12.561Z,7.30
2019-04-27T04:41:11.395Z,7.40
2019-04-27T04:43:55.314Z,7.40
2019-04-27T04:47:04.325Z,7.40
2019-04-27T04:49:39.989Z,7.50
2019-04-27T04:52:23.532Z,7.50
2019-04-27T04:55:02.750Z,7.60
2019-04-27T04:57:46.425Z,7.60
2019-04-27T05:00:40.074Z,7.60
2019-04-27T05:03:26.271Z,7.60
2019-04-27T05:05:58.872Z,7.60
2019-04-27T05:08:29.209Z,7.60
2019-04-27T05:11:12.279Z,7.70
2019-04-27T05:13:55.741Z,7.60
2019-04-27T05:16:38.999Z,7.70
2019-04-27T05:19:35.942Z,7.70
2019-04-27T05:22:06.129Z,7.70
2019-04-27T05:24:41.274Z,7.60
2019-04-27T05:28:01.576Z,7.60
2019-04-27T05:30:25.141Z,7.70
2019-04-27T05:32:58.820Z,7.70
2019-04-27T05:39:04.803Z,7.70
2019-04-27T05:41:37.523Z,7.80
2019-04-27T05:44:31.697Z,7.80
2019-04-27T05:47:34.387Z,7.80
2019-04-27T05:50:17.666Z,7.70
2019-04-27T05:53:05.201Z,7.70
2019-04-27T05:59:15.185Z,7.50
2019-04-27T06:02:10.186Z,7.40
2019-04-27T06:04:46.752Z,7.40
2019-04-27T06:08:00.223Z,7.40
2019-04-27T06:10:24.761Z,7.40
2019-04-27T06:13:23.032Z,7.40
2019-04-27T06:16:11.185Z,7.30
2019-04-27T06:19:02.126Z,7.30
2019-04-27T06:21:45.149Z,7.30
2019-04-27T06:25:25.915Z,7.30
2019-04-27T06:28:24.817Z,7.40
2019-04-27T06:31:08.892Z,7.40
2019-04-27T06:34:10.750Z,7.40
2019-04-27T06:36:51.904Z,7.50
2019-04-27T06:39:21.414Z,7.50
2019-04-27T06:41:53.790Z,7.60
2019-04-27T06:44:34.678Z,7.50
2019-04-27T06:47:19.113Z,7.50
2019-04-27T06:50:41.045Z,7.40
2019-04-27T06:52:50.383Z,7.40
2019-04-27T06:55:19.740Z,7.30
2019-04-27T06:58:08.988Z,7.30
2019-04-27T07:00:59.379Z,7.40
2019-04-27T07:03:48.670Z,7.30
2019-04-27T07:06:29.097Z,7.40
2019-04-27T07:09:09.598Z,7.40
2019-04-27T07:11:53.683Z,7.40
2019-04-27T07:15:09.481Z,7.40
2019-04-27T07:18:03.338Z,7.50
2019-04-27T07:20:39.853Z,7.50
2019-04-27T07:23:11.990Z,7.50
2019-04-27T07:25:54.095Z,7.60
2019-04-27T07:28:46.943Z,7.60
2019-04-27T07:31:33.047Z,7.70
2019-04-27T07:34:04.112Z,7.80
2019-04-27T07:36:44.158Z,7.90
2019-04-27T07:39:52.883Z,7.90
2019-04-27T07:42:46.013Z,8.10
2019-04-27T07:45:34.262Z,8.20
2019-04-27T07:48:23.031Z,8.30
2019-04-27T07:51:01.059Z,8.40
2019-04-27T07:53:38.975Z,8.50
2019-04-27T07:56:25.642Z,8.40
2019-04-27T07:59:02.346Z,8.50
2019-04-27T08:02:29.057Z,8.50
2019-04-27T08:04:25.497Z,8.70
2019-04-27T08:07:29.253Z,8.70
2019-04-27T08:10:42.344Z,8.70
2019-04-27T08:13:39.374Z,9.00
2019-04-27T08:16:59.391Z,9.00
2019-04-27T08:19:49.595Z,8.90
2019-04-27T08:22:55.010Z,8.80
2019-04-27T08:25:43.281Z,8.80
2019-04-27T08:28:48.673Z,8.80
2019-04-27T08:31:41.972Z,9.00
2019-04-27T08:34:35.337Z,8.90
2019-04-27T08:37:25.735Z,9.00
2019-04-27T08:39:54.903Z,9.10
2019-04-27T08:42:44.012Z,9.20
2019-04-27T08:45:20.153Z,9.20
2019-04-27T08:47:51.863Z,9.20
2019-04-27T08:51:11.214Z,9.20
2019-04-27T08:53:50.107Z,9.30
2019-04-27T08:56:40.474Z,9.40
2019-04-27T08:58:52.707Z,9.50
2019-04-27T09:02:00.660Z,9.60
2019-04-27T09:04:50.007Z,9.60
2019-04-27T09:07:36.292Z,9.70
2019-04-27T09:10:43.623Z,9.80
2019-04-27T09:13:43.034Z,9.90
2019-04-27T09:16:59.527Z,9.90
2019-04-27T09:19:59.601Z,9.90
2019-04-27T09:22:43.793Z,9.70
2019-04-27T09:26:01.826Z,9.90
2019-04-27T09:28:44.549Z,10.00
2019-04-27T09:31:49.102Z,10.00
2019-04-27T09:34:20.316Z,10.00
2019-04-27T09:37:06.104Z,10.10
2019-04-27T09:39:45.907Z,10.10
2019-04-27T09:42:27.481Z,10.10
2019-04-27T09:45:09.687Z,10.00
2019-04-27T09:47:39.147Z,10.10
2019-04-27T09:50:46.613Z,10.00
2019-04-27T09:53:23.655Z,10.00
2019-04-27T09:59:02.972Z,10.10
2019-04-27T10:01:43.140Z,10.30
2019-04-27T10:04:23.283Z,10.20
2019-04-27T10:07:06.057Z,10.20
2019-04-27T10:09:36.994Z,10.30
2019-04-27T10:12:10.133Z,10.30
2019-04-27T10:14:50.355Z,10.30
2019-04-27T10:17:13.087Z,10.30
2019-04-27T10:19:52.335Z,10.40
2019-04-27T10:22:21.988Z,10.40
2019-04-27T10:25:09.825Z,10.40
2019-04-27T10:27:52.197Z,10.40
2019-04-27T10:30:25.829Z,10.40
2019-04-27T10:33:20.697Z,10.50
2019-04-27T10:36:41.950Z,10.70
2019-04-27T10:42:06.911Z,10.70
2019-04-27T10:44:58.043Z,10.70
2019-04-27T10:47:36.469Z,10.90
2019-04-27T10:50:15.987Z,11.10
2019-04-27T10:52:53.287Z,11.20
2019-04-27T10:55:18.084Z,11.30
2019-04-27T10:57:59.238Z,11.00
2019-04-27T11:00:45.156Z,10.80
2019-04-27T11:03:21.966Z,10.80
2019-04-27T11:06:10.274Z,10.80
2019-04-27T11:09:42.233Z,10.80
2019-04-27T11:12:30.860Z,11.00
2019-04-27T11:15:16.648Z,11.10
2019-04-27T11:18:01.425Z,11.10
2019-04-27T11:20:39.564Z,11.10
2019-04-27T11:23:12.413Z,11.20
2019-04-27T11:26:23.296Z,11.40
2019-04-27T11:29:07.840Z,11.60
2019-04-27T11:31:55.587Z,11.50
2019-04-27T11:34:48.569Z,11.80
2019-04-27T11:37:24.788Z,12.00
2019-04-27T11:40:30.163Z,12.00
2019-04-27T11:43:36.214Z,11.90
2019-04-27T11:46:06.216Z,11.70
2019-04-27T11:54:37.133Z,12.10
2019-04-27T11:57:19.920Z,11.80
2019-04-27T11:59:58.111Z,12.10
2019-04-27T12:03:07.255Z,12.10
2019-04-27T12:05:46.374Z,12.30
2019-04-27T12:08:39.569Z,12.70
2019-04-27T12:11:08.770Z,12.90
2019-04-27T12:14:20.045Z,12.40
2019-04-27T12:16:56.238Z,12.70
2019-04-27T12:19:35.632Z,12.60
2019-04-27T12:22:00.979Z,12.60
2019-04-27T12:25:12.452Z,12.80
2019-04-27T12:28:15.872Z,12.70
2019-04-27T12:30:58.383Z,12.50
2019-04-27T12:33:59.732Z,12.50
2019-04-27T12:36:35.901Z,12.40
2019-04-27T12:39:17.053Z,12.40
2019-04-27T12:41:46.174Z,12.50
2019-04-27T12:44:42.308Z,12.30
2019-04-27T12:47:11.676Z,12.20
2019-04-27T12:49:58.484Z,12.40
2019-04-27T12:53:05.213Z,12.50
2019-04-27T12:56:09.280Z,12.50
2019-04-27T12:59:02.890Z,12.40
2019-04-27T13:01:56.135Z,12.60
2019-04-27T13:04:29.806Z,12.30
2019-04-27T13:07:06.245Z,12.10
2019-04-27T13:09:46.026Z,12.00
2019-04-27T13:12:14.930Z,12.10
2019-04-27T13:14:46.116Z,12.30
2019-04-27T13:17:44.855Z,12.10
2019-04-27T13:20:27.018Z,12.10
2019-04-27T13:22:56.513Z,12.30
2019-04-27T13:25:29.966Z,12.50
2019-04-27T13:28:06.951Z,12.80
2019-04-27T13:30:42.026Z,13.00
2019-04-27T13:33:22.159Z,12.60
2019-04-27T13:36:16.701Z,12.30
2019-04-27T13:38:32.231Z,12.20
2019-04-27T13:41:32.901Z,12.60
2019-04-27T13:44:10.847Z,12.10
2019-04-27T13:47:07.078Z,11.90
2019-04-27T13:50:02.938Z,12.00
2019-04-27T13:52:46.713Z,12.20
2019-04-27T13:55:38.731Z,12.30
2019-04-27T13:58:15.056Z,12.20
2019-04-27T14:00:52.981Z,11.90
2019-04-27T14:03:51.246Z,11.80
2019-04-27T14:09:15.279Z,12.10
2019-04-27T14:12:01.476Z,12.20
2019-04-27T14:14:36.381Z,12.10
2019-04-27T14:17:29.277Z,12.10
2019-04-27T14:19:49.635Z,12.00
2019-04-27T14:22:19.190Z,11.90
2019-04-27T14:24:58.363Z,12.00
2019-04-27T14:27:52.180Z,12.00
2019-04-27T14:30:34.115Z,12.20
2019-04-27T14:33:49.511Z,12.40
2019-04-27T14:36:29.217Z,12.20
2019-04-27T14:39:11.184Z,12.20
2019-04-27T14:41:53.167Z,12.10
2019-04-27T14:44:29.266Z,11.80
2019-04-27T14:47:24.339Z,12.00
2019-04-27T14:50:01.113Z,12.20
2019-04-27T14:52:33.673Z,12.10
2019-04-27T14:55:02.986Z,12.20
2019-04-27T15:00:58.652Z,12.70
2019-04-27T15:04:27.106Z,12.50
2019-04-27T15:07:04.728Z,12.30
2019-04-27T15:09:40.220Z,12.30
2019-04-27T15:12:23.551Z,12.40
2019-04-27T15:15:32.421Z,12.30
2019-04-27T15:18:46.474Z,11.90
2019-04-27T15:21:25.811Z,11.60
2019-04-27T15:24:09.339Z,11.60
2019-04-27T15:26:45.711Z,11.70
2019-04-27T15:29:26.816Z,11.70
2019-04-27T15:32:09.103Z,11.70
2019-04-27T15:35:05.297Z,11.60
2019-04-27T15:38:11.243Z,11.70
2019-04-27T15:41:01.341Z,11.70
2019-04-27T15:43:38.685Z,11.70
2019-04-27T15:46:22.889Z,11.60
2019-04-27T15:48:54.447Z,11.60
2019-04-27T15:51:29.162Z,12.00
2019-04-27T15:54:18.214Z,11.90
2019-04-27T15:57:05.701Z,11.70
2019-04-27T15:59:40.826Z,11.50
2019-04-27T16:02:25.558Z,11.30
2019-04-27T16:05:17.459Z,11.30
2019-04-27T16:08:15.381Z,11.30
2019-04-27T16:10:43.182Z,11.40
2019-04-27T16:13:48.657Z,11.40
2019-04-27T16:16:29.125Z,11.50
2019-04-27T16:19:07.813Z,11.50
2019-04-27T16:22:22.610Z,11.80
2019-04-27T16:24:43.976Z,12.00
2019-04-27T16:27:20.163Z,11.80
2019-04-27T16:30:09.646Z,11.60
2019-04-27T16:32:50.865Z,11.40
2019-04-27T16:35:44.125Z,10.80
2019-04-27T16:38:48.060Z,10.70
2019-04-27T16:41:49.986Z,10.80
2019-04-27T16:44:18.473Z,10.90
2019-04-27T16:46:55.119Z,10.80
2019-04-27T16:49:40.216Z,10.80
2019-04-27T16:52:40.010Z,10.80
2019-04-27T16:55:19.780Z,10.80
2019-04-27T16:57:54.374Z,10.80
2019-04-27T17:00:30.278Z,10.60
2019-04-27T17:03:03.314Z,10.60
2019-04-27T17:09:09.209Z,10.80
2019-04-27T17:12:09.022Z,11.00
2019-04-27T17:15:05.820Z,11.10
2019-04-27T17:17:59.279Z,11.10
2019-04-27T17:20:59.959Z,11.00
2019-04-27T17:24:09.093Z,11.00
2019-04-27T17:26:44.382Z,10.80
2019-04-27T17:29:25.459Z,10.70
2019-04-27T17:32:13.899Z,10.70
2019-04-27T17:35:12.952Z,10.60
2019-04-27T17:37:54.384Z,10.60
2019-04-27T17:40:15.654Z,10.70
2019-04-27T17:43:08.079Z,10.80
2019-04-27T17:45:53.720Z,10.70
2019-04-27T17:48:23.767Z,10.80
2019-04-27T17:51:03.495Z,10.80
2019-04-27T17:53:34.800Z,10.70
2019-04-27T17:56:18.470Z,10.60
2019-04-27T17:58:44.084Z,10.60
2019-04-27T18:02:11.524Z,10.60
2019-04-27T18:04:45.166Z,10.60
2019-04-27T18:07:19.080Z,10.60
2019-04-27T18:10:40.144Z,10.60
2019-04-27T18:14:00.398Z,10.60
2019-04-27T18:16:34.617Z,10.60
2019-04-27T18:19:30.298Z,10.40
2019-04-27T18:22:17.899Z,10.30
2019-04-27T18:25:20.088Z,10.20
2019-04-27T18:28:07.405Z,10.10
2019-04-27T18:31:00.151Z,10.00
2019-04-27T18:33:37.139Z,9.90
2019-04-27T18:36:14.139Z,9.90
2019-04-27T18:38:49.669Z,9.80
2019-04-27T18:41:28.777Z,9.70
2019-04-27T18:44:38.169Z,9.60
2019-04-27T18:46:58.177Z,9.60
2019-04-27T18:49:39.334Z,9.50
2019-04-27T18:52:35.542Z,9.60
2019-04-27T18:55:21.257Z,9.60
2019-04-27T18:58:00.503Z,9.50
2019-04-27T19:00:42.352Z,9.50
2019-04-27T19:03:31.830Z,9.50
2019-04-27T19:06:20.214Z,9.40
2019-04-27T19:08:53.322Z,9.30
2019-04-27T19:11:23.938Z,9.30
2019-04-27T19:14:00.086Z,9.20
2019-04-27T19:16:30.996Z,9.10
2019-04-27T19:19:08.854Z,9.10
2019-04-27T19:21:39.218Z,9.10
2019-04-27T19:24:15.516Z,9.00
2019-04-27T19:27:18.457Z,9.00
2019-04-27T19:30:01.620Z,8.90
2019-04-27T19:32:42.687Z,8.90
2019-04-27T19:35:33.483Z,8.90
2019-04-27T19:38:03.379Z,8.80
2019-04-27T19:40:45.376Z,8.80
2019-04-27T19:43:20.799Z,8.80
2019-04-27T19:46:03.154Z,8.70
2019-04-27T19:48:56.730Z,8.80
2019-04-27T19:51:42.725Z,8.70
2019-04-27T19:54:13.198Z,8.70
2019-04-27T19:56:59.365Z,8.80
2019-04-27T19:59:39.543Z,8.80
2019-04-27T20:02:18.717Z,8.80
2019-04-27T20:05:09.000Z,8.80
2019-04-27T20:07:42.370Z,8.80
2019-04-27T20:10:17.075Z,8.80
2019-04-27T20:13:25.619Z,8.80
2019-04-27T20:15:57.380Z,8.70
2019-04-27T20:18:25.914Z,8.80
2019-04-27T20:21:05.805Z,8.70
2019-04-27T20:23:41.243Z,8.70
2019-04-27T20:26:19.567Z,8.80
2019-04-27T20:28:51.198Z,8.70
2019-04-27T20:31:21.235Z,8.60
2019-04-27T20:33:54.672Z,8.60
2019-04-27T20:36:28.425Z,8.60
2019-04-27T20:39:01.295Z,8.60
2019-04-27T20:41:36.722Z,8.60
2019-04-27T20:44:12.724Z,8.60
2019-04-27T20:46:57.872Z,8.60
2019-04-27T20:49:47.052Z,8.50
2019-04-27T20:52:51.311Z,8.50
2019-04-27T20:55:26.792Z,8.50
2019-04-27T20:58:51.263Z,8.40
2019-04-27T21:01:08.122Z,8.40
2019-04-27T21:03:53.751Z,8.50
2019-04-27T21:07:00.728Z,8.40
2019-04-27T21:09:32.337Z,8.40
2019-04-27T21:12:22.448Z,8.30
2019-04-27T21:15:00.233Z,8.30
2019-04-27T21:17:48.108Z,8.20
2019-04-27T21:21:45.705Z,8.20
2019-04-27T21:22:56.722Z,8.20
2019-04-27T21:25:31.519Z,8.10
2019-04-27T21:28:15.572Z,8.10
2019-04-27T21:30:45.097Z,8.00
2019-04-27T21:33:27.246Z,8.00
2019-04-27T21:36:02.784Z,8.00
2019-04-27T21:38:55.085Z,8.00
2019-04-27T21:41:51.719Z,8.10
2019-04-27T21:44:58.618Z,8.10
2019-04-27T21:47:53.174Z,8.10
2019-04-27T21:50:25.933Z,8.10
2019-04-27T21:53:22.768Z,8.10
2019-04-27T21:58:56.045Z,8.10
2019-04-27T22:01:41.561Z,8.10
2019-04-27T22:04:55.213Z,8.10
2019-04-27T22:07:28.842Z,8.10
2019-04-27T22:09:56.287Z,8.10
2019-04-27T22:12:53.948Z,8.10
2019-04-27T22:15:38.309Z,8.10
2019-04-27T22:18:28.664Z,8.10
2019-04-27T22:21:08.547Z,8.10
2019-04-27T22:24:30.572Z,8.10
2019-04-27T22:27:08.069Z,8.00
2019-04-27T22:29:53.960Z,8.00
2019-04-27T22:32:36.771Z,8.00
2019-04-27T22:35:08.424Z,7.90
2019-04-27T22:37:43.999Z,7.90
2019-04-27T22:40:35.627Z,7.90
2019-04-27T22:43:51.471Z,7.80
2019-04-27T22:46:24.914Z,7.80
2019-04-27T22:48:56.606Z,7.70
2019-04-27T22:51:43.069Z,7.70
2019-04-27T22:54:23.425Z,7.60
2019-04-27T22:57:06.437Z,7.70
2019-04-27T22:59:53.458Z,7.60
2019-04-27T23:02:55.609Z,7.60
2019-04-27T23:05:16.056Z,7.60
2019-04-27T23:07:44.997Z,7.60
2019-04-27T23:10:16.961Z,7.50
2019-04-27T23:12:50.984Z,7.50
2019-04-27T23:15:25.284Z,7.50
2019-04-27T23:17:58.543Z,7.40
2019-04-27T23:20:32.128Z,7.40
2019-04-27T23:23:19.018Z,7.50
2019-04-27T23:25:53.153Z,7.50
2019-04-27T23:28:25.585Z,7.60
2019-04-27T23:31:20.895Z,7.60
2019-04-27T23:34:01.868Z,7.60
2019-04-27T23:36:41.466Z,7.60
2019-04-27T23:39:33.394Z,7.60
2019-04-27T23:41:44.816Z,7.60
2019-04-27T23:44:18.342Z,7.50
2019-04-27T23:47:16.333Z,7.50
2019-04-27T23:49:56.697Z,7.50
2019-04-27T23:52:50.681Z,7.40
2019-04-27T23:55:23.731Z,7.40
2019-04-27T23:57:54.761Z,7.30
